createdAt,value
2023-05-15T00:01:15.671Z,17.49
2023-05-15T00:04:21.660Z,17.28
2023-05-15T00:07:28.572Z,16.97
2023-05-15T00:10:34.457Z,16.81
2023-05-15T00:13:46.249Z,15.80
2023-05-15T00:16:52.570Z,15.64
2023-05-15T00:20:01.856Z,15.35
2023-05-15T00:23:07.854Z,15.10
2023-05-15T00:26:16.010Z,16.29
2023-05-15T00:29:24.481Z,19.33
2023-05-15T00:32:31.265Z,18.18
2023-05-15T00:35:37.298Z,16.73
2023-05-15T00:38:48.392Z,17.46
2023-05-15T00:41:59.048Z,18.03
2023-05-15T00:45:14.421Z,17.99
2023-05-15T00:48:22.937Z,16.66
2023-05-15T00:51:31.588Z,18.03
2023-05-15T00:54:37.791Z,17.26
2023-05-15T00:57:47.339Z,18.94
2023-05-15T01:00:57.404Z,17.28
2023-05-15T01:04:06.864Z,17.43
2023-05-15T01:07:13.171Z,16.38
2023-05-15T01:10:24.417Z,16.92
2023-05-15T01:13:32.068Z,15.57
2023-05-15T01:16:41.871Z,16.60
2023-05-15T01:19:57.362Z,16.10
2023-05-15T01:23:18.705Z,16.23
2023-05-15T01:27:04.804Z,14.97
2023-05-15T01:30:25.420Z,15.88
2023-05-15T01:33:39.306Z,14.27
2023-05-15T01:36:56.906Z,16.17
2023-05-15T01:40:09.691Z,15.96
2023-05-15T01:43:25.346Z,16.19
2023-05-15T01:46:48.214Z,14.65
2023-05-15T01:50:00.542Z,16.73
2023-05-15T01:53:12.567Z,15.47
2023-05-15T01:56:22.351Z,16.22
2023-05-15T01:59:42.079Z,14.40
2023-05-15T02:02:53.736Z,15.67
2023-05-15T02:06:00.525Z,15.55
2023-05-15T02:09:08.015Z,15.48
2023-05-15T02:12:16.512Z,16.35
2023-05-15T02:15:25.156Z,15.91
2023-05-15T02:18:34.883Z,16.58
2023-05-15T02:21:41.197Z,16.84
2023-05-15T02:24:48.467Z,18.15
2023-05-15T02:28:04.110Z,18.12
2023-05-15T02:31:24.749Z,17.13
2023-05-15T02:34:49.004Z,18.38
2023-05-15T02:38:03.690Z,19.91
2023-05-15T02:41:12.973Z,19.02
2023-05-15T02:44:22.829Z,18.49
2023-05-15T02:47:35.512Z,17.80
2023-05-15T02:50:45.321Z,18.14
2023-05-15T02:53:52.476Z,16.80
2023-05-15T02:57:01.818Z,17.37
2023-05-15T03:00:12.101Z,17.49
2023-05-15T03:03:25.021Z,16.89
2023-05-15T03:06:33.642Z,16.40
2023-05-15T03:09:40.557Z,17.31
2023-05-15T03:12:46.578Z,16.19
2023-05-15T03:15:53.454Z,17.52
2023-05-15T03:18:59.418Z,16.67
2023-05-15T03:22:09.475Z,16.90
2023-05-15T03:25:16.109Z,16.03
2023-05-15T03:28:22.820Z,17.88
2023-05-15T03:31:28.867Z,18.41
2023-05-15T03:34:35.865Z,17.47
2023-05-15T03:37:44.520Z,18.00
2023-05-15T03:40:51.382Z,18.17
2023-05-15T03:43:57.650Z,20.40
2023-05-15T03:47:04.652Z,21.76
2023-05-15T03:50:13.026Z,19.22
2023-05-15T03:53:22.557Z,19.06
2023-05-15T03:56:28.579Z,17.82
2023-05-15T03:59:35.436Z,19.22
2023-05-15T04:02:42.711Z,17.36
2023-05-15T04:05:50.515Z,18.21
2023-05-15T04:08:59.055Z,17.80
2023-05-15T04:12:06.269Z,18.16
2023-05-15T04:15:21.842Z,17.23
2023-05-15T04:18:28.737Z,18.15
2023-05-15T04:21:34.701Z,18.67
2023-05-15T04:24:44.237Z,19.05
2023-05-15T04:27:50.406Z,19.73
2023-05-15T04:30:58.959Z,20.88
2023-05-15T04:34:05.457Z,20.17
2023-05-15T04:37:12.427Z,19.81
2023-05-15T04:40:21.533Z,17.59
2023-05-15T04:43:28.344Z,18.78
2023-05-15T04:46:37.729Z,18.69
2023-05-15T04:49:45.725Z,19.01
2023-05-15T04:52:51.619Z,18.45
2023-05-15T04:56:01.093Z,18.48
2023-05-15T04:59:07.106Z,16.51
2023-05-15T05:02:14.339Z,17.38
2023-05-15T05:05:20.961Z,17.89
2023-05-15T05:08:27.702Z,17.83
2023-05-15T05:11:39.550Z,16.06
2023-05-15T05:14:48.402Z,17.52
2023-05-15T05:17:54.556Z,17.49
2023-05-15T05:21:04.329Z,18.30
2023-05-15T05:24:12.535Z,18.03
2023-05-15T05:27:22.280Z,20.23
2023-05-15T05:30:28.228Z,20.17
2023-05-15T05:33:36.724Z,21.18
2023-05-15T05:36:42.634Z,19.69
2023-05-15T05:39:55.452Z,20.69
2023-05-15T05:43:11.326Z,21.66
2023-05-15T05:46:18.159Z,21.58
2023-05-15T05:49:24.416Z,21.25
2023-05-15T05:52:32.794Z,21.38
2023-05-15T05:55:38.893Z,22.80
2023-05-15T05:58:48.578Z,23.46
2023-05-15T06:01:54.634Z,23.93
2023-05-15T06:05:01.740Z,25.00
2023-05-15T06:08:08.393Z,28.05
2023-05-15T06:11:15.091Z,26.80
2023-05-15T06:14:23.616Z,29.09
2023-05-15T06:17:30.308Z,29.51
2023-05-15T06:20:36.670Z,30.46
2023-05-15T06:23:43.325Z,28.92
2023-05-15T06:26:50.422Z,29.78
2023-05-15T06:30:05.022Z,30.82
2023-05-15T06:33:10.970Z,30.40
2023-05-15T06:36:17.717Z,29.47
2023-05-15T06:39:26.982Z,28.53
2023-05-15T06:42:33.823Z,31.01
2023-05-15T06:45:43.110Z,28.59
2023-05-15T06:48:51.335Z,28.59
2023-05-15T06:51:59.288Z,25.92
2023-05-15T06:55:05.905Z,25.97
2023-05-15T06:58:12.029Z,22.93
2023-05-15T07:01:21.482Z,25.18
2023-05-15T07:04:27.682Z,24.74
2023-05-15T07:07:34.549Z,24.87
2023-05-15T07:10:40.433Z,23.86
2023-05-15T07:13:47.400Z,24.16
2023-05-15T07:16:56.293Z,23.87
2023-05-15T07:20:17.121Z,23.53
2023-05-15T07:23:26.780Z,22.08
2023-05-15T07:26:40.995Z,23.71
2023-05-15T07:29:52.791Z,18.99
2023-05-15T07:33:02.188Z,18.17
2023-05-15T07:36:11.719Z,18.82
2023-05-15T07:39:22.739Z,17.82
2023-05-15T07:42:29.388Z,17.54
2023-05-15T07:45:36.250Z,19.13
2023-05-15T07:48:44.953Z,17.11
2023-05-15T07:51:52.081Z,15.51
2023-05-15T07:54:59.013Z,13.52
2023-05-15T07:58:06.722Z,14.08
2023-05-15T08:01:20.688Z,12.60
2023-05-15T08:04:30.011Z,14.22
2023-05-15T08:07:38.235Z,13.75
2023-05-15T08:10:45.035Z,12.12
2023-05-15T08:13:51.093Z,11.81
2023-05-15T08:16:59.958Z,11.41
2023-05-15T08:20:29.269Z,9.10
2023-05-15T08:23:39.516Z,11.59
2023-05-15T08:26:45.677Z,12.31
2023-05-15T08:29:53.174Z,13.30
2023-05-15T08:33:00.382Z,13.24
2023-05-15T08:36:11.529Z,12.94
2023-05-15T08:39:22.555Z,9.46
2023-05-15T08:42:43.290Z,10.43
2023-05-15T08:45:58.779Z,9.73
2023-05-15T08:49:27.069Z,12.96
2023-05-15T08:52:37.589Z,11.52
2023-05-15T08:55:45.499Z,11.41
2023-05-15T08:58:52.705Z,11.58
2023-05-15T09:02:00.475Z,10.20
2023-05-15T09:05:13.428Z,10.11
2023-05-15T09:08:25.981Z,10.66
2023-05-15T09:11:36.599Z,8.38
2023-05-15T09:14:44.263Z,9.35
2023-05-15T09:17:50.545Z,9.43
2023-05-15T09:20:57.352Z,10.34
2023-05-15T09:24:28.479Z,10.72
2023-05-15T09:27:49.048Z,11.81
2023-05-15T09:31:05.016Z,11.80
2023-05-15T09:34:15.011Z,12.26
2023-05-15T09:37:34.298Z,13.14
2023-05-15T09:40:44.007Z,13.10
2023-05-15T09:43:49.853Z,12.11
2023-05-15T09:46:57.329Z,13.50
2023-05-15T09:50:03.384Z,12.99
2023-05-15T09:53:14.191Z,14.02
2023-05-15T09:56:23.219Z,12.62
2023-05-15T09:59:30.115Z,13.65
2023-05-15T10:02:36.625Z,12.79
2023-05-15T10:05:46.646Z,13.03
2023-05-15T10:08:56.261Z,12.40
2023-05-15T10:12:09.025Z,12.48
2023-05-15T10:15:16.954Z,12.72
2023-05-15T10:18:30.744Z,12.95
2023-05-15T10:21:40.130Z,11.68
2023-05-15T10:24:52.144Z,12.27
2023-05-15T10:28:02.934Z,13.51
2023-05-15T10:31:14.007Z,13.54
2023-05-15T10:34:21.747Z,12.95
2023-05-15T10:37:30.645Z,13.59
2023-05-15T10:40:41.309Z,13.57
2023-05-15T10:43:53.329Z,16.61
2023-05-15T10:46:59.671Z,16.60
2023-05-15T10:50:08.449Z,17.60
2023-05-15T10:53:14.673Z,16.12
2023-05-15T10:56:21.765Z,14.22
2023-05-15T10:59:37.936Z,14.30
2023-05-15T11:02:44.796Z,13.80
2023-05-15T11:06:13.169Z,12.88
2023-05-15T11:09:41.806Z,12.54
2023-05-15T11:13:05.613Z,11.45
2023-05-15T11:16:16.587Z,13.41
2023-05-15T11:19:35.653Z,13.88
2023-05-15T11:22:42.343Z,14.37
2023-05-15T11:25:58.862Z,13.17
2023-05-15T11:29:23.364Z,13.65
2023-05-15T11:32:51.320Z,12.25
2023-05-15T11:36:03.209Z,14.03
2023-05-15T11:39:14.919Z,12.83
2023-05-15T11:42:22.721Z,13.39
2023-05-15T11:45:28.992Z,12.31
2023-05-15T11:48:44.581Z,13.64
2023-05-15T11:51:54.069Z,12.54
2023-05-15T11:55:03.233Z,13.36
2023-05-15T11:58:16.562Z,12.42
2023-05-15T12:01:23.332Z,12.88
2023-05-15T12:04:32.212Z,11.26
2023-05-15T12:07:42.168Z,11.36
2023-05-15T12:10:52.262Z,9.43
2023-05-15T12:13:59.821Z,10.52
2023-05-15T12:17:07.039Z,10.72
2023-05-15T12:20:21.122Z,11.51
2023-05-15T12:23:29.332Z,10.39
2023-05-15T12:26:39.694Z,10.34
2023-05-15T12:29:46.823Z,10.16
2023-05-15T12:32:54.712Z,10.06
2023-05-15T12:36:03.343Z,10.31
2023-05-15T12:39:11.476Z,11.08
2023-05-15T12:42:20.766Z,10.21
2023-05-15T12:45:29.112Z,11.21
2023-05-15T12:48:36.360Z,10.00
2023-05-15T12:51:48.813Z,11.07
2023-05-15T12:54:58.624Z,9.53
2023-05-15T12:58:11.893Z,10.34
2023-05-15T13:01:18.934Z,11.01
2023-05-15T13:04:26.354Z,11.53
2023-05-15T13:07:35.859Z,12.26
2023-05-15T13:10:42.821Z,10.44
2023-05-15T13:13:52.338Z,10.57
2023-05-15T13:17:05.119Z,9.87
2023-05-15T13:20:12.617Z,9.10
2023-05-15T13:23:25.276Z,9.40
2023-05-15T13:26:31.153Z,8.63
2023-05-15T13:29:38.540Z,7.94
2023-05-15T13:32:44.840Z,9.29
2023-05-15T13:35:52.137Z,10.24
2023-05-15T13:39:06.375Z,10.45
2023-05-15T13:42:13.181Z,10.17
2023-05-15T13:45:20.360Z,667.73
2023-05-15T13:48:27.283Z,89.69
2023-05-15T13:51:33.390Z,240.42
2023-05-15T13:54:42.908Z,64.55
2023-05-15T13:57:48.997Z,945.30
2023-05-15T14:00:55.941Z,7312.74
2023-05-15T14:04:05.092Z,2526.69
2023-05-15T14:07:11.895Z,203.15
2023-05-15T14:10:24.347Z,1887.35
2023-05-15T14:13:32.006Z,181.60
2023-05-15T14:16:38.038Z,775.94
2023-05-15T14:19:45.101Z,1870.57
2023-05-15T14:22:54.132Z,2944.96
2023-05-15T14:26:05.564Z,10869.65
2023-05-15T14:29:11.589Z,10150.65
2023-05-15T14:32:19.274Z,12595.79
2023-05-15T14:35:32.237Z,5512.64
2023-05-15T14:38:45.841Z,5882.36
2023-05-15T14:41:54.520Z,6501.97
2023-05-15T14:45:14.983Z,6068.45
2023-05-15T14:48:27.422Z,5947.38
2023-05-15T14:51:41.741Z,8837.58
2023-05-15T14:54:56.930Z,9.81
2023-05-15T14:58:11.632Z,10.38
2023-05-15T15:01:22.278Z,10.03
2023-05-15T15:04:30.736Z,14.67
2023-05-15T15:08:05.126Z,307.07
2023-05-15T15:11:12.588Z,24.76
2023-05-15T15:14:24.437Z,8.65
2023-05-15T15:17:31.269Z,10.93
2023-05-15T15:20:37.460Z,12.59
2023-05-15T15:23:45.031Z,11.64
2023-05-15T15:26:53.256Z,9.39
2023-05-15T15:30:04.264Z,10.84
2023-05-15T15:33:10.339Z,10.13
2023-05-15T15:36:17.308Z,12.65
2023-05-15T15:39:23.717Z,14.59
2023-05-15T15:42:31.715Z,14.62
2023-05-15T15:45:40.419Z,13.50
2023-05-15T15:48:47.156Z,13.84
2023-05-15T15:51:53.153Z,11.18
2023-05-15T15:54:59.959Z,13.39
2023-05-15T15:58:06.583Z,12.23
2023-05-15T16:01:16.229Z,13.66
2023-05-15T16:04:23.197Z,28.93
2023-05-15T16:07:30.463Z,22.69
2023-05-15T16:10:39.363Z,9.39
2023-05-15T16:13:46.497Z,10.65
2023-05-15T16:16:55.304Z,9.11
2023-05-15T16:20:02.177Z,11.22
2023-05-15T16:23:09.647Z,11.79
2023-05-15T16:26:16.404Z,273.69
2023-05-15T16:29:22.932Z,826.62
2023-05-15T16:32:34.232Z,21.81
2023-05-15T16:35:40.262Z,15.52
2023-05-15T16:38:47.403Z,9.59
2023-05-15T16:41:53.416Z,10.02
2023-05-15T16:45:00.236Z,11.45
2023-05-15T16:48:09.630Z,10.45
2023-05-15T16:51:17.184Z,10.83
2023-05-15T16:54:23.183Z,9.14
2023-05-15T16:57:29.924Z,10.39
2023-05-15T17:00:35.836Z,9.95
2023-05-15T17:03:45.597Z,9.79
2023-05-15T17:06:51.838Z,10.73
2023-05-15T17:09:58.738Z,11.26
2023-05-15T17:13:04.941Z,11.70
2023-05-15T17:16:11.791Z,11.25
2023-05-15T17:19:20.507Z,11.50
2023-05-15T17:22:27.373Z,12.99
2023-05-15T17:25:36.689Z,13.00
2023-05-15T17:28:43.742Z,12.87
2023-05-15T17:31:50.281Z,12.80
2023-05-15T17:34:59.713Z,12.55
2023-05-15T17:38:05.716Z,10.68
2023-05-15T17:41:12.453Z,12.67
2023-05-15T17:44:18.394Z,12.92
2023-05-15T17:47:25.189Z,11.91
2023-05-15T17:50:38.154Z,11.05
2023-05-15T17:53:45.049Z,11.23
2023-05-15T17:56:53.821Z,10.46
2023-05-15T18:00:00.776Z,10.26
2023-05-15T18:03:18.129Z,8.92
2023-05-15T18:06:28.493Z,11.96
2023-05-15T18:09:34.463Z,9.77
2023-05-15T18:12:41.351Z,11.46
2023-05-15T18:15:47.481Z,13.50
2023-05-15T18:18:55.354Z,14.59
2023-05-15T18:22:04.404Z,13.23
2023-05-15T18:25:11.927Z,13.42
2023-05-15T18:28:21.014Z,10.76
2023-05-15T18:31:27.948Z,14.37
2023-05-15T18:34:34.702Z,12.39
2023-05-15T18:37:44.584Z,14.71
2023-05-15T18:40:51.131Z,13.95
2023-05-15T18:43:58.216Z,13.02
2023-05-15T18:47:04.745Z,11.92
2023-05-15T18:50:14.443Z,11.55
2023-05-15T18:53:23.386Z,9.53
2023-05-15T18:56:30.112Z,11.75
2023-05-15T18:59:38.851Z,11.50
2023-05-15T19:02:45.907Z,11.46
2023-05-15T19:05:52.472Z,10.61
2023-05-15T19:09:01.918Z,12.27
2023-05-15T19:12:08.969Z,10.17
2023-05-15T19:15:18.395Z,12.68
2023-05-15T19:18:24.453Z,10.77
2023-05-15T19:21:55.156Z,11.29
2023-05-15T19:25:03.867Z,12.86
2023-05-15T19:28:11.202Z,13.60
2023-05-15T19:31:30.891Z,14.57
2023-05-15T19:34:38.522Z,12.22
2023-05-15T19:37:45.817Z,12.94
2023-05-15T19:40:55.220Z,13.95
2023-05-15T19:44:02.293Z,14.18
2023-05-15T19:47:12.074Z,14.59
2023-05-15T19:50:22.714Z,14.02
2023-05-15T19:53:30.662Z,13.89
2023-05-15T19:56:41.345Z,13.28
2023-05-15T19:59:53.774Z,14.48
2023-05-15T20:03:00.990Z,13.93
2023-05-15T20:06:08.308Z,13.01
2023-05-15T20:09:20.408Z,12.05
2023-05-15T20:12:32.661Z,12.12
2023-05-15T20:15:40.203Z,12.27
2023-05-15T20:18:48.250Z,12.11
2023-05-15T20:22:07.407Z,11.66
2023-05-15T20:25:15.454Z,13.43
2023-05-15T20:28:44.329Z,12.21
2023-05-15T20:31:51.976Z,12.54
2023-05-15T20:34:58.732Z,13.48
2023-05-15T20:38:05.542Z,16.31
2023-05-15T20:41:11.540Z,15.57
2023-05-15T20:44:21.279Z,16.90
2023-05-15T20:47:27.256Z,15.44
2023-05-15T20:50:34.231Z,16.83
2023-05-15T20:53:46.246Z,15.92
2023-05-15T20:56:53.050Z,15.10
2023-05-15T21:00:01.525Z,16.48
2023-05-15T21:03:09.712Z,16.04
2023-05-15T21:06:17.677Z,14.97
2023-05-15T21:09:24.552Z,15.51
2023-05-15T21:12:34.914Z,15.50
2023-05-15T21:15:44.628Z,16.79
2023-05-15T21:18:50.618Z,16.42
2023-05-15T21:21:57.498Z,16.03
2023-05-15T21:25:04.875Z,15.30
2023-05-15T21:28:11.756Z,15.01
2023-05-15T21:31:20.339Z,14.11
2023-05-15T21:34:27.071Z,14.41
2023-05-15T21:37:34.499Z,13.59
2023-05-15T21:40:41.297Z,14.00
2023-05-15T21:43:52.592Z,13.41
2023-05-15T21:47:02.059Z,13.08
2023-05-15T21:50:09.980Z,13.35
2023-05-15T21:53:17.480Z,13.91
2023-05-15T21:56:26.597Z,13.51
2023-05-15T21:59:35.322Z,12.39
2023-05-15T22:02:43.951Z,11.80
2023-05-15T22:05:51.954Z,12.78
2023-05-15T22:08:57.932Z,11.64
2023-05-15T22:12:04.964Z,12.74
2023-05-15T22:15:16.489Z,11.89
2023-05-15T22:18:26.476Z,11.71
2023-05-15T22:21:34.492Z,11.37
2023-05-15T22:24:41.186Z,12.79
2023-05-15T22:27:47.082Z,12.92
2023-05-15T22:30:59.823Z,13.42
2023-05-15T22:34:15.132Z,13.59
2023-05-15T22:37:22.142Z,15.65
2023-05-15T22:40:28.487Z,17.35
2023-05-15T22:43:35.498Z,19.76
2023-05-15T22:46:41.414Z,20.35
2023-05-15T22:49:50.899Z,20.34
2023-05-15T22:52:57.493Z,16.53
2023-05-15T22:56:04.140Z,17.17
2023-05-15T22:59:10.065Z,16.47
2023-05-15T23:02:16.804Z,16.36
2023-05-15T23:05:26.292Z,15.36
2023-05-15T23:08:37.404Z,16.43
2023-05-15T23:11:43.400Z,16.09
2023-05-15T23:14:53.119Z,17.61
2023-05-15T23:18:05.147Z,17.71
2023-05-15T23:21:14.488Z,17.85
2023-05-15T23:24:20.308Z,17.40
2023-05-15T23:27:33.468Z,18.88
2023-05-15T23:30:48.645Z,18.11
2023-05-15T23:33:55.467Z,20.16
2023-05-15T23:37:05.357Z,19.30
2023-05-15T23:40:13.648Z,19.93
2023-05-15T23:43:19.637Z,19.81
2023-05-15T23:46:26.470Z,20.53
2023-05-15T23:49:33.801Z,19.23
2023-05-15T23:52:46.519Z,19.81
2023-05-15T23:55:52.500Z,16.77
2023-05-15T23:59:01.744Z,17.02
